createdAt,value
2023-03-25T00:00:18.415Z,62.56
2023-03-25T00:02:47.623Z,63.37
2023-03-25T00:05:16.521Z,63.14
2023-03-25T00:07:44.773Z,62.95
2023-03-25T00:10:13.918Z,63.29
2023-03-25T00:12:42.796Z,62.92
2023-03-25T00:15:11.838Z,63.19
2023-03-25T00:17:39.437Z,63.20
2023-03-25T00:20:10.014Z,63.25
2023-03-25T00:22:41.296Z,62.86
2023-03-25T00:25:19.401Z,63.43
2023-03-25T00:27:49.017Z,62.95
2023-03-25T00:30:17.672Z,63.17
2023-03-25T00:32:50.091Z,63.11
2023-03-25T00:35:21.446Z,63.19
2023-03-25T00:37:52.538Z,62.83
2023-03-25T00:40:19.626Z,63.96
2023-03-25T00:42:50.433Z,63.32
2023-03-25T00:45:18.339Z,63.55
2023-03-25T00:47:45.822Z,63.61
2023-03-25T00:50:13.185Z,64.79
2023-03-25T00:52:40.570Z,64.97
2023-03-25T00:55:08.205Z,64.56
2023-03-25T00:57:35.263Z,64.10
2023-03-25T01:00:06.419Z,63.71
2023-03-25T01:02:34.029Z,63.90
2023-03-25T01:05:02.189Z,63.46
2023-03-25T01:07:32.285Z,63.26
2023-03-25T01:09:59.848Z,63.20
2023-03-25T01:12:27.290Z,63.32
2023-03-25T01:14:54.834Z,63.12
2023-03-25T01:17:21.801Z,62.84
2023-03-25T01:19:48.750Z,63.31
2023-03-25T01:22:15.846Z,63.14
2023-03-25T01:24:42.868Z,62.73
2023-03-25T01:27:09.782Z,63.07
2023-03-25T01:29:36.783Z,63.10
2023-03-25T01:32:03.938Z,63.08
2023-03-25T01:34:33.423Z,63.18
2023-03-25T01:37:01.190Z,63.00
2023-03-25T01:39:28.237Z,62.73
2023-03-25T01:41:55.442Z,63.44
2023-03-25T01:44:22.787Z,62.94
2023-03-25T01:46:53.964Z,62.72
2023-03-25T01:49:34.222Z,63.11
2023-03-25T01:52:05.634Z,62.98
2023-03-25T01:54:33.739Z,63.08
2023-03-25T01:57:01.487Z,62.86
2023-03-25T01:59:29.536Z,63.11
2023-03-25T02:02:00.000Z,62.45
2023-03-25T02:04:39.541Z,63.09
2023-03-25T02:07:10.983Z,62.80
2023-03-25T02:09:39.024Z,63.24
2023-03-25T02:12:07.789Z,63.35
2023-03-25T02:14:37.683Z,63.36
2023-03-25T02:17:27.404Z,63.09
2023-03-25T02:20:13.952Z,63.45
2023-03-25T02:22:49.968Z,62.94
2023-03-25T02:25:55.066Z,62.92
2023-03-25T02:28:48.726Z,62.92
2023-03-25T02:31:43.440Z,62.99
2023-03-25T02:34:19.675Z,62.82
2023-03-25T02:37:09.424Z,62.57
2023-03-25T02:39:59.952Z,62.46
2023-03-25T02:42:38.270Z,62.73
2023-03-25T02:45:13.544Z,62.70
2023-03-25T02:47:47.718Z,62.60
2023-03-25T02:50:30.290Z,62.83
2023-03-25T02:53:06.541Z,62.65
2023-03-25T02:55:34.875Z,62.91
2023-03-25T02:58:07.712Z,62.87
2023-03-25T03:00:38.473Z,63.59
2023-03-25T03:03:08.048Z,63.77
2023-03-25T03:05:38.637Z,63.71
2023-03-25T03:08:19.121Z,63.84
2023-03-25T03:11:12.368Z,64.01
2023-03-25T03:13:44.841Z,64.02
2023-03-25T03:16:39.525Z,63.23
2023-03-25T03:19:21.445Z,63.04
2023-03-25T03:22:02.408Z,63.52
2023-03-25T03:24:35.097Z,63.74
2023-03-25T03:27:15.105Z,63.33
2023-03-25T03:29:49.273Z,63.13
2023-03-25T03:32:22.952Z,63.00
2023-03-25T03:34:49.921Z,63.98
2023-03-25T03:37:30.085Z,63.16
2023-03-25T03:39:58.212Z,63.28
2023-03-25T03:42:34.070Z,63.63
2023-03-25T03:45:05.377Z,62.90
2023-03-25T03:47:40.007Z,62.69
2023-03-25T03:50:11.853Z,63.18
2023-03-25T03:52:51.714Z,62.87
2023-03-25T03:55:29.561Z,63.33
2023-03-25T03:58:06.242Z,62.78
2023-03-25T04:00:40.362Z,63.11
2023-03-25T04:03:17.227Z,62.48
2023-03-25T04:05:52.565Z,62.72
2023-03-25T04:08:29.897Z,62.75
2023-03-25T04:11:01.734Z,63.12
2023-03-25T04:13:35.021Z,63.03
2023-03-25T04:16:02.079Z,62.91
2023-03-25T04:18:28.962Z,62.75
2023-03-25T04:20:56.273Z,62.95
2023-03-25T04:23:23.196Z,62.95
2023-03-25T04:25:53.552Z,62.86
2023-03-25T04:28:20.730Z,62.79
2023-03-25T04:30:55.673Z,63.34
2023-03-25T04:33:24.176Z,62.74
2023-03-25T04:35:51.890Z,63.14
2023-03-25T04:38:19.951Z,63.16
2023-03-25T04:40:47.700Z,63.06
2023-03-25T04:43:16.355Z,63.15
2023-03-25T04:45:49.660Z,63.19
2023-03-25T04:48:24.466Z,63.11
2023-03-25T04:50:56.047Z,64.28
2023-03-25T04:53:22.946Z,63.53
2023-03-25T04:55:50.571Z,64.06
2023-03-25T04:58:18.111Z,63.61
2023-03-25T05:00:47.660Z,63.45
2023-03-25T05:03:16.015Z,63.98
2023-03-25T05:05:42.992Z,63.43
2023-03-25T05:08:11.715Z,63.72
2023-03-25T05:10:39.052Z,63.43
2023-03-25T05:13:07.673Z,63.53
2023-03-25T05:15:39.822Z,63.54
2023-03-25T05:18:14.960Z,63.99
2023-03-25T05:20:44.244Z,63.78
2023-03-25T05:23:18.015Z,64.08
2023-03-25T05:25:51.004Z,64.12
2023-03-25T05:28:18.981Z,63.71
2023-03-25T05:31:11.136Z,64.12
2023-03-25T05:33:45.640Z,64.05
2023-03-25T05:36:13.930Z,63.63
2023-03-25T05:38:41.925Z,63.83
2023-03-25T05:41:12.239Z,63.88
2023-03-25T05:43:39.217Z,63.95
2023-03-25T05:46:06.551Z,63.70
2023-03-25T05:48:33.634Z,63.79
2023-03-25T05:51:04.534Z,63.99
2023-03-25T05:53:34.207Z,63.77
2023-03-25T05:56:01.385Z,63.98
2023-03-25T05:58:28.266Z,63.42
2023-03-25T06:00:55.582Z,63.04
2023-03-25T06:03:26.441Z,62.46
2023-03-25T06:05:53.766Z,62.39
2023-03-25T06:08:26.187Z,62.25
2023-03-25T06:10:59.093Z,62.41
2023-03-25T06:13:26.079Z,62.22
2023-03-25T06:15:57.459Z,62.17
2023-03-25T06:18:25.021Z,61.96
2023-03-25T06:20:54.825Z,61.95
2023-03-25T06:23:24.986Z,61.04
2023-03-25T06:25:52.792Z,60.02
2023-03-25T06:28:19.976Z,58.78
2023-03-25T06:30:48.294Z,57.75
2023-03-25T06:33:42.962Z,56.29
2023-03-25T06:36:08.135Z,54.53
2023-03-25T06:38:35.074Z,53.44
2023-03-25T06:41:11.013Z,51.88
2023-03-25T06:43:39.132Z,51.08
2023-03-25T06:46:22.315Z,48.98
2023-03-25T06:49:07.991Z,47.86
2023-03-25T06:51:35.049Z,47.82
2023-03-25T06:54:01.963Z,46.56
2023-03-25T06:56:28.988Z,45.45
2023-03-25T06:58:55.954Z,45.04
2023-03-25T07:01:22.875Z,43.40
2023-03-25T07:03:50.335Z,42.87
2023-03-25T07:06:20.461Z,42.23
2023-03-25T07:08:48.167Z,41.51
2023-03-25T07:11:16.789Z,40.70
2023-03-25T07:13:43.730Z,40.23
2023-03-25T07:16:11.665Z,38.92
2023-03-25T07:18:41.678Z,37.36
2023-03-25T07:21:08.594Z,37.49
2023-03-25T07:23:35.495Z,36.50
2023-03-25T07:26:02.448Z,36.06
2023-03-25T07:28:29.385Z,34.36
2023-03-25T07:30:56.316Z,34.76
2023-03-25T07:33:23.288Z,33.88
2023-03-25T07:35:50.659Z,33.51
2023-03-25T07:38:17.812Z,32.48
2023-03-25T07:40:44.720Z,32.22
2023-03-25T07:43:17.400Z,31.53
2023-03-25T07:45:54.172Z,32.01
2023-03-25T07:48:22.864Z,30.51
2023-03-25T07:50:51.965Z,30.67
2023-03-25T07:53:19.355Z,29.77
2023-03-25T07:55:46.648Z,29.49
2023-03-25T07:58:13.686Z,28.04
2023-03-25T08:00:40.615Z,27.71
2023-03-25T08:03:07.677Z,28.35
2023-03-25T08:05:34.641Z,27.41
2023-03-25T08:08:01.632Z,26.36
2023-03-25T08:10:29.336Z,26.17
2023-03-25T08:12:56.594Z,25.31
2023-03-25T08:15:24.990Z,24.94
2023-03-25T08:17:54.774Z,25.34
2023-03-25T08:20:21.837Z,24.21
2023-03-25T08:22:48.817Z,24.07
2023-03-25T08:25:16.022Z,23.74
2023-03-25T08:27:43.263Z,22.39
2023-03-25T08:30:11.018Z,22.63
2023-03-25T08:32:38.671Z,22.75
2023-03-25T08:35:06.642Z,22.76
2023-03-25T08:37:38.050Z,23.11
2023-03-25T08:40:09.923Z,23.04
2023-03-25T08:42:37.899Z,20.81
2023-03-25T08:45:06.045Z,21.59
2023-03-25T08:47:33.052Z,21.38
2023-03-25T08:50:00.138Z,21.28
2023-03-25T08:52:27.090Z,20.69
2023-03-25T08:54:54.056Z,20.35
2023-03-25T08:57:21.272Z,19.13
2023-03-25T08:59:48.437Z,19.76
2023-03-25T09:02:15.523Z,19.59
2023-03-25T09:04:42.797Z,19.34
2023-03-25T09:07:12.591Z,19.36
2023-03-25T09:09:41.313Z,18.99
2023-03-25T09:12:08.989Z,19.12
2023-03-25T09:14:36.494Z,19.48
2023-03-25T09:17:04.583Z,18.99
2023-03-25T09:19:31.741Z,18.54
2023-03-25T09:21:58.908Z,18.21
2023-03-25T09:24:26.060Z,18.79
2023-03-25T09:26:52.975Z,18.06
2023-03-25T09:29:19.916Z,18.15
2023-03-25T09:31:46.893Z,18.09
2023-03-25T09:34:15.714Z,17.18
2023-03-25T09:36:43.336Z,17.89
2023-03-25T09:39:10.435Z,17.76
2023-03-25T09:41:37.440Z,17.54
2023-03-25T09:44:27.611Z,18.00
2023-03-25T09:46:56.774Z,17.87
2023-03-25T09:49:28.018Z,18.99
2023-03-25T09:51:56.280Z,19.76
2023-03-25T09:54:31.903Z,19.50
2023-03-25T09:57:12.377Z,19.74
2023-03-25T09:59:49.645Z,20.37
2023-03-25T10:02:46.770Z,21.91
2023-03-25T10:05:34.187Z,23.42
2023-03-25T10:08:29.961Z,24.10
2023-03-25T10:11:27.670Z,24.31
2023-03-25T10:14:06.698Z,24.14
2023-03-25T10:16:41.175Z,26.19
2023-03-25T10:19:40.504Z,26.80
2023-03-25T10:22:16.501Z,26.40
2023-03-25T10:25:00.972Z,24.93
2023-03-25T10:27:41.695Z,23.85
2023-03-25T10:30:18.978Z,23.30
2023-03-25T10:32:52.037Z,22.75
2023-03-25T10:35:30.130Z,22.23
2023-03-25T10:38:13.917Z,21.66
2023-03-25T10:40:50.610Z,22.85
2023-03-25T10:43:23.583Z,23.15
2023-03-25T10:45:56.104Z,23.60
2023-03-25T10:48:24.725Z,23.40
2023-03-25T10:50:55.952Z,24.00
2023-03-25T10:53:26.012Z,23.75
2023-03-25T10:56:15.511Z,23.99
2023-03-25T10:58:45.904Z,24.79
2023-03-25T11:01:17.934Z,24.56
2023-03-25T11:03:49.368Z,25.51
2023-03-25T11:06:22.601Z,25.57
2023-03-25T11:09:08.192Z,25.89
2023-03-25T11:11:36.811Z,25.66
2023-03-25T11:14:04.304Z,25.86
2023-03-25T11:16:44.202Z,26.63
2023-03-25T11:19:19.173Z,26.87
2023-03-25T11:21:49.036Z,26.25
2023-03-25T11:24:19.432Z,25.92
2023-03-25T11:26:49.235Z,25.99
2023-03-25T11:29:23.763Z,26.26
2023-03-25T11:32:13.643Z,26.60
2023-03-25T11:34:43.506Z,27.27
2023-03-25T11:37:19.387Z,28.87
2023-03-25T11:39:57.439Z,31.78
2023-03-25T11:42:49.977Z,32.44
2023-03-25T11:45:46.547Z,33.13
2023-03-25T11:48:30.829Z,33.34
2023-03-25T11:51:01.699Z,33.31
2023-03-25T11:53:32.609Z,33.57
2023-03-25T11:56:04.716Z,33.94
2023-03-25T11:58:36.231Z,35.11
2023-03-25T12:01:06.848Z,35.85
2023-03-25T12:03:35.444Z,35.71
2023-03-25T12:06:11.746Z,36.54
2023-03-25T12:08:51.713Z,37.48
2023-03-25T12:11:21.925Z,37.56
2023-03-25T12:14:00.961Z,38.12
2023-03-25T12:17:03.281Z,38.90
2023-03-25T12:20:08.380Z,39.06
2023-03-25T12:23:16.256Z,38.40
2023-03-25T12:26:04.634Z,39.36
2023-03-25T12:28:47.802Z,40.37
2023-03-25T12:31:32.317Z,40.23
2023-03-25T12:34:07.810Z,39.98
2023-03-25T12:37:10.747Z,41.09
2023-03-25T12:39:52.578Z,41.62
2023-03-25T12:42:38.186Z,41.84
2023-03-25T12:45:24.648Z,41.85
2023-03-25T12:48:50.150Z,42.18
2023-03-25T12:51:39.918Z,41.61
2023-03-25T12:54:28.697Z,42.36
2023-03-25T12:57:31.824Z,42.04
2023-03-25T13:00:16.797Z,41.07
2023-03-25T13:02:46.471Z,41.21
2023-03-25T13:05:27.283Z,40.92
2023-03-25T13:08:17.812Z,40.28
2023-03-25T13:10:49.185Z,40.09
2023-03-25T13:13:24.391Z,40.14
2023-03-25T13:16:10.054Z,39.68
2023-03-25T13:18:50.375Z,40.37
2023-03-25T13:21:27.255Z,40.28
2023-03-25T13:24:00.415Z,39.75
2023-03-25T13:26:30.240Z,39.70
2023-03-25T13:29:02.318Z,40.04
2023-03-25T13:31:50.062Z,40.39
2023-03-25T13:34:41.301Z,40.63
2023-03-25T13:37:23.533Z,40.12
2023-03-25T13:40:15.015Z,39.65
2023-03-25T13:43:02.573Z,39.09
2023-03-25T13:45:37.376Z,39.42
2023-03-25T13:48:17.777Z,39.35
2023-03-25T13:50:45.053Z,39.53
2023-03-25T13:53:22.450Z,39.61
2023-03-25T13:56:21.967Z,39.60
2023-03-25T13:58:49.223Z,39.46
2023-03-25T14:01:31.435Z,39.62
2023-03-25T14:04:22.445Z,39.47
2023-03-25T14:07:10.154Z,38.32
2023-03-25T14:10:08.279Z,38.51
2023-03-25T14:12:37.436Z,38.37
2023-03-25T14:15:11.654Z,37.17
2023-03-25T14:17:39.855Z,37.47
2023-03-25T14:20:10.710Z,38.17
2023-03-25T14:22:43.760Z,38.83
2023-03-25T14:25:48.220Z,38.83
2023-03-25T14:28:31.685Z,38.39
2023-03-25T14:31:09.031Z,38.74
2023-03-25T14:34:14.097Z,38.42
2023-03-25T14:36:41.145Z,38.59
2023-03-25T14:39:12.648Z,37.68
2023-03-25T14:42:03.247Z,38.20
2023-03-25T14:44:41.669Z,38.28
2023-03-25T14:47:20.773Z,38.37
2023-03-25T14:49:54.381Z,37.93
2023-03-25T14:52:30.185Z,37.76
2023-03-25T14:54:58.671Z,37.93
2023-03-25T14:57:29.801Z,37.94
2023-03-25T15:00:09.555Z,37.47
2023-03-25T15:02:38.195Z,38.35
2023-03-25T15:05:20.492Z,38.05
2023-03-25T15:08:11.628Z,38.63
2023-03-25T15:10:42.485Z,38.60
2023-03-25T15:13:27.484Z,39.14
2023-03-25T15:16:00.977Z,39.53
2023-03-25T15:18:37.324Z,39.17
2023-03-25T15:21:10.168Z,39.92
2023-03-25T15:24:11.378Z,40.02
2023-03-25T15:26:45.733Z,39.65
2023-03-25T15:29:24.526Z,39.58
2023-03-25T15:32:29.659Z,39.54
2023-03-25T15:35:36.865Z,39.65
2023-03-25T15:39:11.272Z,39.82
2023-03-25T15:42:02.440Z,39.82
2023-03-25T15:45:03.098Z,39.62
2023-03-25T15:48:07.285Z,39.94
2023-03-25T15:50:37.849Z,39.73
2023-03-25T15:53:13.673Z,39.77
2023-03-25T15:55:54.347Z,40.13
2023-03-25T15:58:54.552Z,40.19
2023-03-25T16:01:29.506Z,39.77
2023-03-25T16:04:02.338Z,39.81
2023-03-25T16:06:33.874Z,39.75
2023-03-25T16:09:03.096Z,40.14
2023-03-25T16:11:30.052Z,39.80
2023-03-25T16:14:03.567Z,39.47
2023-03-25T16:16:36.069Z,39.59
2023-03-25T16:19:08.511Z,39.35
2023-03-25T16:21:36.613Z,39.50
2023-03-25T16:24:07.913Z,40.00
2023-03-25T16:26:47.140Z,40.54
2023-03-25T16:29:24.395Z,39.73
2023-03-25T16:32:00.679Z,40.29
2023-03-25T16:34:34.469Z,40.40
2023-03-25T16:37:02.847Z,40.72
2023-03-25T16:39:34.387Z,41.14
2023-03-25T16:42:07.066Z,41.01
2023-03-25T16:44:34.695Z,40.73
2023-03-25T16:47:02.439Z,41.75
2023-03-25T16:49:35.115Z,41.64
2023-03-25T16:52:08.203Z,41.66
2023-03-25T16:54:38.491Z,41.35
2023-03-25T16:57:08.942Z,41.68
2023-03-25T16:59:38.142Z,41.77
2023-03-25T17:02:40.996Z,41.76
2023-03-25T17:05:23.575Z,41.55
2023-03-25T17:07:58.305Z,42.42
2023-03-25T17:10:27.149Z,43.15
2023-03-25T17:13:03.217Z,42.67
2023-03-25T17:15:34.576Z,41.86
2023-03-25T17:18:06.170Z,40.89
2023-03-25T17:20:45.832Z,40.81
2023-03-25T17:23:35.611Z,40.94
2023-03-25T17:26:07.676Z,41.14
2023-03-25T17:28:53.773Z,40.94
2023-03-25T17:31:31.256Z,41.51
2023-03-25T17:34:26.473Z,42.07
2023-03-25T17:37:03.644Z,42.53
2023-03-25T17:39:33.171Z,42.38
2023-03-25T17:42:06.071Z,43.63
2023-03-25T17:44:38.533Z,44.01
2023-03-25T17:47:07.251Z,44.06
2023-03-25T17:49:34.741Z,44.00
2023-03-25T17:52:01.977Z,43.70
2023-03-25T17:54:28.980Z,43.78
2023-03-25T17:56:56.119Z,44.68
2023-03-25T17:59:28.119Z,46.68
2023-03-25T18:01:55.337Z,45.75
2023-03-25T18:04:23.170Z,45.15
2023-03-25T18:06:50.393Z,45.35
2023-03-25T18:09:22.212Z,44.93
2023-03-25T18:11:56.026Z,44.83
2023-03-25T18:14:24.217Z,45.01
2023-03-25T18:16:51.625Z,44.97
2023-03-25T18:19:21.082Z,44.99
2023-03-25T18:21:48.082Z,45.37
2023-03-25T18:24:15.285Z,45.67
2023-03-25T18:26:43.948Z,45.25
2023-03-25T18:29:18.001Z,46.07
2023-03-25T18:31:45.361Z,46.37
2023-03-25T18:34:13.314Z,46.70
2023-03-25T18:36:41.450Z,46.49
2023-03-25T18:39:14.557Z,46.72
2023-03-25T18:41:41.940Z,47.08
2023-03-25T18:44:09.709Z,46.52
2023-03-25T18:46:37.422Z,47.17
2023-03-25T18:49:10.950Z,47.54
2023-03-25T18:51:37.896Z,47.29
2023-03-25T18:54:04.824Z,46.81
2023-03-25T18:56:31.993Z,47.68
2023-03-25T18:58:58.996Z,47.44
2023-03-25T19:01:26.734Z,48.05
2023-03-25T19:03:53.646Z,48.66
2023-03-25T19:06:20.551Z,48.73
2023-03-25T19:08:47.556Z,48.89
2023-03-25T19:11:21.697Z,48.42
2023-03-25T19:13:50.618Z,48.73
2023-03-25T19:16:18.158Z,48.86
2023-03-25T19:18:47.319Z,49.86
2023-03-25T19:21:17.255Z,49.86
2023-03-25T19:23:44.301Z,49.65
2023-03-25T19:26:12.239Z,49.48
2023-03-25T19:28:39.330Z,50.78
2023-03-25T19:31:06.525Z,49.63
2023-03-25T19:33:34.100Z,49.86
2023-03-25T19:36:02.127Z,50.80
2023-03-25T19:38:30.653Z,50.62
2023-03-25T19:41:12.270Z,52.32
2023-03-25T19:43:39.366Z,50.73
2023-03-25T19:46:07.173Z,50.61
2023-03-25T19:48:35.183Z,50.67
2023-03-25T19:51:02.853Z,50.54
2023-03-25T19:53:30.006Z,50.78
2023-03-25T19:56:01.300Z,50.62
2023-03-25T19:58:29.039Z,50.93
2023-03-25T20:00:56.146Z,50.81
2023-03-25T20:03:24.089Z,50.71
2023-03-25T20:06:02.457Z,51.33
2023-03-25T20:08:30.501Z,50.67
2023-03-25T20:10:58.724Z,51.11
2023-03-25T20:13:26.656Z,50.81
2023-03-25T20:15:53.985Z,51.28
2023-03-25T20:18:21.289Z,51.46
2023-03-25T20:20:48.150Z,51.53
2023-03-25T20:23:15.059Z,51.69
2023-03-25T20:25:42.326Z,50.88
2023-03-25T20:28:09.394Z,51.73
2023-03-25T20:30:36.428Z,52.03
2023-03-25T20:33:04.015Z,51.11
2023-03-25T20:35:31.872Z,51.64
2023-03-25T20:37:59.155Z,50.99
2023-03-25T20:40:37.327Z,52.29
2023-03-25T20:43:14.510Z,53.22
2023-03-25T20:45:42.736Z,51.78
2023-03-25T20:48:09.627Z,52.16
2023-03-25T20:50:37.200Z,52.84
2023-03-25T20:53:04.524Z,51.64
2023-03-25T20:55:31.595Z,52.21
2023-03-25T20:57:58.510Z,51.52
2023-03-25T21:00:25.430Z,52.10
2023-03-25T21:02:52.714Z,51.52
2023-03-25T21:05:19.930Z,51.99
2023-03-25T21:07:47.016Z,52.10
2023-03-25T21:10:13.982Z,51.23
2023-03-25T21:12:44.709Z,50.94
2023-03-25T21:15:13.441Z,50.42
2023-03-25T21:17:40.944Z,50.72
2023-03-25T21:20:09.278Z,50.95
2023-03-25T21:22:42.848Z,50.36
2023-03-25T21:25:10.721Z,50.20
2023-03-25T21:27:39.604Z,50.24
2023-03-25T21:30:12.017Z,50.13
2023-03-25T21:32:39.967Z,49.95
2023-03-25T21:35:08.160Z,49.68
2023-03-25T21:37:38.038Z,49.52
2023-03-25T21:40:08.332Z,49.52
2023-03-25T21:42:38.558Z,48.98
2023-03-25T21:45:07.971Z,49.37
2023-03-25T21:47:36.266Z,49.48
2023-03-25T21:50:10.107Z,48.83
2023-03-25T21:52:38.952Z,49.24
2023-03-25T21:55:06.748Z,48.91
2023-03-25T21:57:38.458Z,49.28
2023-03-25T22:00:08.160Z,48.93
2023-03-25T22:02:45.572Z,49.22
2023-03-25T22:05:14.392Z,48.95
2023-03-25T22:07:42.221Z,48.44
2023-03-25T22:10:10.574Z,48.75
2023-03-25T22:12:37.495Z,48.68
2023-03-25T22:15:04.763Z,49.17
2023-03-25T22:17:31.685Z,48.99
2023-03-25T22:19:58.646Z,48.89
2023-03-25T22:22:25.636Z,49.08
2023-03-25T22:24:52.584Z,49.05
2023-03-25T22:27:19.605Z,49.47
2023-03-25T22:29:46.551Z,49.71
2023-03-25T22:32:13.542Z,49.60
2023-03-25T22:34:40.652Z,49.54
2023-03-25T22:37:07.704Z,49.62
2023-03-25T22:39:34.648Z,49.79
2023-03-25T22:42:01.582Z,49.81
2023-03-25T22:44:28.973Z,49.74
2023-03-25T22:46:56.550Z,49.88
2023-03-25T22:49:24.412Z,50.33
2023-03-25T22:51:51.814Z,49.70
2023-03-25T22:54:18.757Z,50.31
2023-03-25T22:56:45.821Z,49.88
2023-03-25T22:59:14.141Z,49.99
2023-03-25T23:01:42.267Z,50.40
2023-03-25T23:04:09.598Z,50.76
2023-03-25T23:06:37.413Z,50.12
2023-03-25T23:09:06.731Z,50.00
2023-03-25T23:11:34.632Z,50.20
2023-03-25T23:14:11.106Z,50.17
2023-03-25T23:16:39.220Z,49.85
2023-03-25T23:19:07.001Z,50.18
2023-03-25T23:21:34.564Z,50.16
2023-03-25T23:24:03.974Z,50.69
2023-03-25T23:26:38.979Z,50.42
2023-03-25T23:29:09.012Z,50.23
2023-03-25T23:31:41.504Z,50.14
2023-03-25T23:34:12.203Z,50.19
2023-03-25T23:36:40.109Z,50.10
2023-03-25T23:39:10.936Z,50.28
2023-03-25T23:41:38.368Z,50.69
2023-03-25T23:44:06.218Z,50.39
2023-03-25T23:46:33.927Z,50.55
2023-03-25T23:49:04.111Z,50.96
2023-03-25T23:51:35.589Z,50.55
2023-03-25T23:54:03.887Z,51.23
2023-03-25T23:56:31.529Z,51.42
2023-03-25T23:59:00.187Z,50.21
